Terminal Aerodrome Forecast
Issued by NWS Bismarck, ND

Home | Current Version | Previous Version | Graphics & Text | Print | Product List | Glossary On
Versions: 1 2 3 4 5 6 7 8 9 10 11 12 13 14 15
785
FTUS43 KBIS 251552 AAA
TAFISN
TAF AMD
KISN 251552Z 2516/2612 28009KT P6SM FEW140
     FM251700 29008KT P6SM FEW050
     FM260400 22005KT P6SM FEW080=

USA.gov is the U.S. government's official web portal to all federal, state and local government web resources and services.